Time;durP1;ratioP1;P1;durP2;ratioP2;P2;SDS_P1;SDS_P2;PMS_P1;PMS_P2;Temp;Humidity;BMP_temperature;BMP_pressure;BME280_temperature;BME280_humidity;BME280_pressure;Samples;Min_cycle;Max_cycle;Signal;HPM_P1;HPM_P2
2022/10/26 17:28:50;;;;;;;27.80;3.47;;;;;;;12.23;91.38;99774.88;4969227;27;20409;-47
2022/10/26 17:31:17;;;;;;;13.87;3.23;;;;;;;12.23;91.42;99773.66;4961356;28;20043;-43
2022/10/26 17:33:49;;;;;;;12.73;3.00;;;;;;;12.23;91.21;99798.66;4962573;28;20572;-42
2022/10/26 17:36:19;;;;;;;15.05;5.80;;;;;;;12.24;91.33;99807.78;4964550;28;20042;-42
2022/10/26 17:38:49;;;;;;;17.58;4.30;;;;;;;12.23;91.32;99808.97;4962491;28;20460;-42
2022/10/26 17:41:18;;;;;;;17.67;4.68;;;;;;;12.21;91.33;99825.19;4960946;28;20047;-41
2022/10/26 17:43:46;;;;;;;16.60;5.78;;;;;;;12.19;91.35;99830.31;4962060;28;20062;-42
2022/10/26 17:46:15;;;;;;;17.52;5.00;;;;;;;12.16;91.58;99828.28;4961917;28;20038;-42
2022/10/26 17:48:42;;;;;;;14.80;5.05;;;;;;;12.14;91.36;99833.44;4958108;28;20055;-42
2022/10/26 17:51:15;;;;;;;19.98;4.03;;;;;;;12.13;91.23;99840.13;4963520;28;20138;-47
2022/10/26 17:53:44;;;;;;;12.43;3.63;;;;;;;12.16;91.13;99859.63;4963323;28;20043;-46
2022/10/26 17:56:26;;;;;;;12.60;3.38;;;;;;;12.15;90.98;99858.00;4958489;28;20049;-47
2022/10/26 17:58:55;;;;;;;28.43;6.93;;;;;;;12.11;90.93;99864.69;4959581;28;20051;-42
2022/10/26 18:01:22;;;;;;;15.60;5.45;;;;;;;12.09;90.94;99864.28;4963894;28;20057;-43
2022/10/26 18:03:50;;;;;;;19.30;3.13;;;;;;;12.07;91.08;99867.41;4960134;28;20055;-42
2022/10/26 18:06:17;;;;;;;14.90;4.03;;;;;;;12.06;90.80;99874.16;4958635;28;20040;-42
2022/10/26 18:08:44;;;;;;;6.85;3.08;;;;;;;12.05;90.73;99883.66;4962340;28;20051;-42
2022/10/26 18:11:20;;;;;;;14.98;3.42;;;;;;;12.07;90.56;99883.28;4961886;28;20047;-45
2022/10/26 18:13:53;;;;;;;17.48;2.53;;;;;;;12.03;90.47;99876.88;4956919;28;20047;-42
2022/10/26 18:16:21;;;;;;;14.50;3.60;;;;;;;12.03;90.43;99891.56;4960189;28;20047;-42
2022/10/26 18:18:58;;;;;;;12.50;3.05;;;;;;;12.02;90.21;99881.63;4960695;28;20061;-42
2022/10/26 18:21:27;;;;;;;15.18;2.53;;;;;;;11.99;90.35;99895.47;4963431;28;20047;-46
2022/10/26 18:23:54;;;;;;;10.82;3.08;;;;;;;11.99;90.17;99899.00;4959436;28;20070;-42
2022/10/26 18:26:25;;;;;;;14.25;2.88;;;;;;;11.97;90.14;99906.09;4964035;28;20051;-43
2022/10/26 18:28:53;;;;;;;16.63;2.67;;;;;;;11.93;89.94;99908.03;4993303;28;20405;-43
2022/10/26 18:31:21;;;;;;;15.85;4.03;;;;;;;11.92;90.16;99909.22;4961107;28;20057;-42
2022/10/26 18:34:00;;;;;;;11.38;3.10;;;;;;;11.92;89.96;99931.41;4962351;28;20190;-43
2022/10/26 18:36:27;;;;;;;12.50;2.72;;;;;;;11.93;89.80;99924.69;4961921;28;20054;-44
2022/10/26 18:38:54;;;;;;;25.00;4.90;;;;;;;11.96;89.48;99938.63;4955674;28;20130;-43
2022/10/26 18:41:22;;;;;;;32.05;15.23;;;;;;;11.96;89.47;99944.16;4980826;28;20441;-46
2022/10/26 18:43:53;;;;;;;17.20;4.05;;;;;;;11.94;89.48;99943.72;4949353;28;20047;-42
2022/10/26 18:46:23;;;;;;;20.88;5.18;;;;;;;11.92;89.52;99948.03;4947228;28;20039;-43
2022/10/26 18:48:50;;;;;;;15.88;3.15;;;;;;;11.91;89.43;99946.47;4948383;28;20067;-44
2022/10/26 18:51:19;;;;;;;16.00;5.13;;;;;;;11.85;89.60;99947.94;4947786;29;20039;-42
2022/10/26 18:53:47;;;;;;;17.48;3.40;;;;;;;11.86;89.67;99946.78;4948392;28;20828;-45
2022/10/26 18:56:20;;;;;;;17.92;3.60;;;;;;;11.87;89.64;99959.47;4946730;29;20082;-43
2022/10/26 18:58:49;;;;;;;16.95;3.25;;;;;;;11.91;89.78;99969.47;4949104;28;20134;-43
2022/10/26 19:01:17;;;;;;;22.25;3.22;;;;;;;11.95;89.66;99972.25;4950311;28;20039;-43
2022/10/26 19:03:45;;;;;;;10.77;2.65;;;;;;;11.96;89.79;99977.47;4943147;29;20105;-45
2022/10/26 19:06:14;;;;;;;25.65;5.88;;;;;;;11.98;89.70;99975.09;4947559;28;20039;-43
2022/10/26 19:08:41;;;;;;;19.77;3.80;;;;;;;11.98;89.38;99980.66;4949936;29;20047;-45
2022/10/26 19:11:11;;;;;;;13.95;3.72;;;;;;;11.97;89.58;99978.22;4947853;28;20489;-43
2022/10/26 19:13:38;;;;;;;12.80;2.75;;;;;;;11.97;89.71;99986.56;4946276;28;20055;-43
2022/10/26 19:16:08;;;;;;;15.15;3.50;;;;;;;11.99;89.74;99978.69;4945866;28;20043;-48
2022/10/26 19:18:47;;;;;;;16.52;2.95;;;;;;;12.01;89.51;99977.13;4945441;28;20062;-44
2022/10/26 19:21:19;;;;;;;11.88;2.97;;;;;;;12.03;89.52;99999.75;4946565;28;20537;-44
2022/10/26 19:23:48;;;;;;;19.17;3.47;;;;;;;12.06;89.32;99992.66;4949908;28;20047;-43
2022/10/26 19:26:19;;;;;;;21.77;4.85;;;;;;;12.06;89.46;100003.75;4948501;28;20039;-43
2022/10/26 19:28:46;;;;;;;19.67;3.20;;;;;;;12.05;89.21;99999.38;4946050;29;20048;-43
2022/10/26 19:31:14;;;;;;;15.45;3.38;;;;;;;12.05;89.34;99991.84;4945025;28;20523;-46
2022/10/26 19:33:40;;;;;;;19.20;3.75;;;;;;;12.03;89.33;99998.94;4947868;28;20039;-43
2022/10/26 19:36:10;;;;;;;20.40;2.90;;;;;;;12.03;89.29;100007.25;4943676;28;20043;-45
2022/10/26 19:38:38;;;;;;;16.85;3.30;;;;;;;11.99;89.53;99987.00;4947371;29;20405;-43
2022/10/26 19:41:06;;;;;;;18.83;4.43;;;;;;;11.98;89.67;99983.44;4946505;28;20059;-43
2022/10/26 19:43:35;;;;;;;23.45;3.58;;;;;;;11.97;89.70;99994.88;4961143;28;20043;-44
2022/10/26 19:46:08;;;;;;;14.70;3.20;;;;;;;11.99;89.68;100009.19;4947754;29;20050;-45
2022/10/26 19:48:36;;;;;;;14.75;3.17;;;;;;;12.03;89.74;100007.25;4947694;28;20580;-45
2022/10/26 19:51:03;;;;;;;20.65;3.70;;;;;;;12.04;89.56;100012.47;4947254;28;20046;-44
2022/10/26 19:53:30;;;;;;;16.02;3.30;;;;;;;12.05;89.53;100016.00;4947186;29;20043;-44
2022/10/26 19:55:58;;;;;;;24.92;5.05;;;;;;;12.04;89.44;100014.44;4945379;29;20054;-49
2022/10/26 19:58:27;;;;;;;9.88;3.47;;;;;;;12.04;89.32;100014.44;4946614;28;20127;-44
2022/10/26 20:00:56;;;;;;;25.13;3.70;;;;;;;12.02;89.50;100008.47;4946442;28;20047;-45
2022/10/26 20:03:23;;;;;;;17.88;3.60;;;;;;;11.99;89.40;100020.28;4941303;28;20043;-48
2022/10/26 20:05:49;;;;;;;31.48;6.22;;;;;;;11.98;89.50;100025.03;4947652;29;20051;-46
2022/10/26 20:08:18;;;;;;;12.65;3.17;;;;;;;11.98;89.49;100016.72;4948351;28;20163;-44
2022/10/26 20:10:45;;;;;;;18.00;4.43;;;;;;;11.96;89.74;100018.25;4947363;28;20062;-46
2022/10/26 20:13:13;;;;;;;20.83;3.60;;;;;;;11.92;89.74;100020.97;4941413;28;20048;-44
2022/10/26 20:15:40;;;;;;;17.95;3.13;;;;;;;11.93;89.96;100019.00;4945819;28;20413;-48
2022/10/26 20:18:09;;;;;;;27.48;5.60;;;;;;;11.96;89.87;100015.50;4948998;29;20051;-46
2022/10/26 20:20:39;;;;;;;11.90;3.10;;;;;;;11.96;89.73;100027.38;4946855;29;20401;-46
2022/10/26 20:23:07;;;;;;;24.40;3.13;;;;;;;11.97;90.02;100025.38;4946249;28;20436;-44
2022/10/26 20:25:35;;;;;;;21.40;4.45;;;;;;;12.00;89.87;100019.91;4948210;28;20454;-44
2022/10/26 20:28:04;;;;;;;23.25;4.13;;;;;;;12.00;89.62;100016.34;4943622;28;20497;-44
2022/10/26 20:30:32;;;;;;;15.38;3.70;;;;;;;12.00;89.62;100021.88;4946467;28;20327;-44
2022/10/26 20:32:59;;;;;;;15.50;3.25;;;;;;;11.97;89.65;100028.16;4945299;28;20051;-44
2022/10/26 20:35:25;;;;;;;18.20;3.60;;;;;;;11.96;89.49;100029.34;4943811;29;20073;-52
2022/10/26 20:37:53;;;;;;;12.85;3.10;;;;;;;11.96;89.49;100038.47;4945924;28;20714;-44
2022/10/26 20:40:20;;;;;;;20.90;3.70;;;;;;;11.94;89.68;100037.25;4944357;29;20039;-49
2022/10/26 20:42:50;;;;;;;16.42;3.67;;;;;;;11.92;89.70;100045.13;4945888;29;20054;-44
2022/10/26 20:45:26;;;;;;;25.45;4.55;;;;;;;11.87;89.93;100051.00;4944697;28;20110;-47
2022/10/26 20:47:53;;;;;;;20.58;3.95;;;;;;;11.83;90.10;100042.63;4947046;28;20454;-53
2022/10/26 20:50:22;;;;;;;14.32;3.53;;;;;;;11.84;90.36;100049.75;4947967;28;20100;-50
2022/10/26 20:53:00;;;;;;;15.50;3.40;;;;;;;11.83;90.22;100052.91;4945019;28;20057;-43
2022/10/26 20:55:35;;;;;;;14.18;3.70;;;;;;;11.79;90.15;100049.25;4945683;28;20505;-44
2022/10/26 20:58:14;;;;;;;20.20;3.67;;;;;;;11.76;90.17;100055.53;4945197;28;20047;-44
2022/10/26 21:00:53;;;;;;;22.73;5.20;;;;;;;11.75;90.31;100062.28;4943152;28;20043;-44
2022/10/26 21:03:19;;;;;;;15.30;3.50;;;;;;;11.74;90.46;100057.91;4939338;29;20555;-44
2022/10/26 21:05:46;;;;;;;19.73;4.68;;;;;;;11.74;90.58;100052.34;4946707;28;20047;-53
2022/10/26 21:08:13;;;;;;;14.10;3.28;;;;;;;11.74;90.28;100052.34;4947153;28;20035;-44
2022/10/26 21:10:40;;;;;;;11.20;2.80;;;;;;;11.77;90.41;100052.41;4947543;28;20501;-48
2022/10/26 21:13:06;;;;;;;20.38;3.50;;;;;;;11.81;90.39;100046.94;4944538;28;20048;-44
2022/10/26 21:15:34;;;;;;;64.10;4.88;;;;;;;11.85;90.08;100047.78;4945765;29;20047;-44
2022/10/26 21:18:01;;;;;;;20.30;2.50;;;;;;;11.88;89.83;100064.50;4948857;29;20039;-44
2022/10/26 21:20:27;;;;;;;11.05;2.80;;;;;;;11.90;89.57;100050.25;4948625;28;20046;-44
2022/10/26 21:22:54;;;;;;;24.73;4.25;;;;;;;11.92;89.54;100056.22;4946951;28;20051;-46
2022/10/26 21:25:21;;;;;;;18.40;2.58;;;;;;;11.95;89.35;100052.72;4948133;29;20050;-44
2022/10/26 21:27:47;;;;;;;17.98;4.30;;;;;;;11.97;88.86;100053.94;4945465;28;20063;-44
2022/10/26 21:30:14;;;;;;;10.32;2.35;;;;;;;11.99;88.85;100059.13;4947051;28;20501;-44
2022/10/26 21:32:41;;;;;;;21.42;3.53;;;;;;;12.01;88.61;100062.34;4943008;29;20575;-44
2022/10/26 21:35:08;;;;;;;17.30;3.47;;;;;;;11.99;88.67;100054.34;4962585;28;20053;-45
2022/10/26 21:37:35;;;;;;;18.48;2.67;;;;;;;11.97;88.32;100053.94;4944735;28;20062;-45
2022/10/26 21:40:01;;;;;;;18.27;2.70;;;;;;;11.98;88.28;100060.28;4947462;29;20103;-51
2022/10/26 21:42:28;;;;;;;15.85;2.72;;;;;;;11.99;88.29;100048.03;4962707;28;20567;-44
2022/10/26 21:44:55;;;;;;;25.48;5.70;;;;;;;12.03;88.19;100051.66;4944677;28;20056;-46
2022/10/26 21:47:22;;;;;;;43.08;9.45;;;;;;;12.05;87.98;100055.66;4948165;28;20138;-44
2022/10/26 21:49:49;;;;;;;18.23;4.30;;;;;;;12.07;88.03;100056.09;4941928;29;20047;-46
2022/10/26 21:52:23;;;;;;;14.13;3.03;;;;;;;12.05;87.74;100063.19;4943036;28;20051;-45
2022/10/26 21:54:52;;;;;;;16.15;2.88;;;;;;;12.04;87.75;100053.28;4944431;29;20073;-43
2022/10/26 21:57:19;;;;;;;20.58;2.53;;;;;;;12.02;87.67;100069.50;4948139;28;20050;-43
2022/10/26 21:59:45;;;;;;;11.77;2.53;;;;;;;11.99;87.67;100065.47;4946055;28;20074;-44
2022/10/26 22:02:13;;;;;;;10.10;2.30;;;;;;;12.00;87.74;100069.84;4943952;28;20115;-54
2022/10/26 22:04:42;;;;;;;20.08;3.75;;;;;;;11.99;87.78;100078.56;4941544;28;20052;-50
2022/10/26 22:07:09;;;;;;;15.52;3.67;;;;;;;11.96;87.61;100073.75;4945714;28;20058;-51
2022/10/26 22:09:36;;;;;;;17.00;2.50;;;;;;;11.99;87.44;100086.88;4943366;28;20040;-48
2022/10/26 22:12:23;;;;;;;28.05;4.93;;;;;;;11.97;87.36;100078.91;4939271;29;20058;-43
2022/10/26 22:14:49;;;;;;;10.68;2.65;;;;;;;11.94;87.61;100098.28;4946669;28;20055;-43
2022/10/26 22:17:16;;;;;;;12.35;2.90;;;;;;;11.91;87.55;100090.69;4948315;28;20055;-44
2022/10/26 22:19:42;;;;;;;14.80;2.53;;;;;;;11.90;87.37;100089.09;4947869;28;20043;-43
2022/10/26 22:22:09;;;;;;;15.27;2.97;;;;;;;11.87;87.54;100089.81;4962067;28;20051;-43
2022/10/26 22:24:36;;;;;;;14.75;4.47;;;;;;;11.82;87.61;100088.16;4947307;29;20062;-43
2022/10/26 22:27:03;;;;;;;19.65;3.15;;;;;;;11.78;87.54;100092.06;4981206;28;20055;-45
2022/10/26 22:29:29;;;;;;;18.80;3.65;;;;;;;11.73;87.96;100086.81;4949056;28;20047;-43
2022/10/26 22:31:56;;;;;;;18.88;6.38;;;;;;;11.69;87.78;100088.69;4948362;28;20051;-43
2022/10/26 22:34:23;;;;;;;23.83;4.65;;;;;;;11.62;87.83;100090.13;4949677;29;20069;-51
2022/10/26 22:36:49;;;;;;;17.52;3.20;;;;;;;11.57;88.05;100079.34;4950930;28;20110;-48
2022/10/26 22:39:16;;;;;;;21.67;4.28;;;;;;;11.50;88.54;100082.00;4951468;28;20051;-43
2022/10/26 22:41:43;;;;;;;24.77;5.88;;;;;;;11.47;88.69;100079.97;4949000;28;20039;-47
2022/10/26 22:44:10;;;;;;;18.73;5.20;;;;;;;11.43;88.90;100079.09;4953452;29;20047;-45
2022/10/26 22:46:36;;;;;;;25.13;6.47;;;;;;;11.42;88.89;100079.44;4953357;28;20055;-50
2022/10/26 22:49:03;;;;;;;22.52;4.80;;;;;;;11.36;89.26;100084.50;4952841;28;20055;-42
2022/10/26 22:51:32;;;;;;;16.73;5.07;;;;;;;11.38;89.68;100082.19;4952521;28;20509;-43
2022/10/26 22:54:00;;;;;;;17.63;4.25;;;;;;;11.38;89.80;100073.88;4952498;29;20062;-43
2022/10/26 22:56:29;;;;;;;25.90;3.88;;;;;;;11.38;90.04;100065.53;4950098;29;20047;-43
2022/10/26 22:58:56;;;;;;;23.40;4.22;;;;;;;11.40;90.11;100068.75;4953002;28;20393;-43
2022/10/26 23:01:26;;;;;;;30.00;4.28;;;;;;;11.39;90.13;100058.81;4952576;28;20047;-44
2022/10/26 23:03:55;;;;;;;28.67;4.20;;;;;;;11.40;90.58;100054.09;4952125;29;20054;-47
2022/10/26 23:06:23;;;;;;;20.63;3.85;;;;;;;11.39;90.68;100042.19;4951563;28;20043;-43
2022/10/26 23:08:50;;;;;;;20.08;4.65;;;;;;;11.37;90.93;100050.06;4952623;28;20050;-43
2022/10/26 23:11:19;;;;;;;28.92;5.05;;;;;;;11.36;90.99;100048.47;4952770;28;20105;-49
2022/10/26 23:13:46;;;;;;;20.67;4.85;;;;;;;11.35;91.11;100051.63;4952550;28;20043;-44
2022/10/26 23:16:16;;;;;;;28.73;4.47;;;;;;;11.33;91.64;100043.66;4951894;28;20051;-50
2022/10/26 23:18:43;;;;;;;27.40;4.72;;;;;;;11.34;91.86;100045.25;4952112;29;20067;-43
2022/10/26 23:21:11;;;;;;;32.08;6.15;;;;;;;11.34;91.99;100041.69;4952276;28;20070;-43
2022/10/26 23:23:38;;;;;;;26.88;6.45;;;;;;;11.32;92.08;100041.25;4952050;28;20043;-43
2022/10/26 23:26:12;;;;;;;26.50;6.35;;;;;;;11.27;92.39;100036.81;4952308;28;20607;-43
2022/10/26 23:28:40;;;;;;;27.73;5.97;;;;;;;11.21;92.77;100024.44;4948066;28;20051;-43
2022/10/26 23:31:11;;;;;;;32.78;7.18;;;;;;;11.18;93.02;100032.66;4949772;28;20042;-50
2022/10/26 23:33:38;;;;;;;34.20;6.57;;;;;;;11.12;93.38;100023.06;4950074;28;20051;-43
2022/10/26 23:36:05;;;;;;;27.42;7.55;;;;;;;11.09;93.68;100021.03;4947130;29;20047;-43
2022/10/26 23:38:31;;;;;;;24.95;5.32;;;;;;;11.07;94.21;100023.38;4951762;29;20046;-44
2022/10/26 23:40:58;;;;;;;22.55;4.05;;;;;;;11.12;94.45;100020.28;4952034;28;20386;-43
2022/10/26 23:43:26;;;;;;;18.55;3.80;;;;;;;11.15;94.57;100014.00;4951007;28;20158;-43
2022/10/26 23:45:54;;;;;;;23.60;4.13;;;;;;;11.23;94.63;100012.97;4949079;28;20509;-43
2022/10/26 23:48:21;;;;;;;14.75;3.83;;;;;;;11.33;94.69;100017.94;4950933;29;20397;-44
2022/10/26 23:50:49;;;;;;;16.70;3.90;;;;;;;11.38;94.57;100012.09;4950480;28;20066;-43
2022/10/26 23:53:18;;;;;;;16.42;3.70;;;;;;;11.45;94.55;100015.78;4950921;29;20064;-49
2022/10/26 23:55:45;;;;;;;17.35;2.83;;;;;;;11.53;94.44;100011.16;4952422;28;20097;-43
2022/10/26 23:58:12;;;;;;;22.15;4.55;;;;;;;11.60;94.23;100017.63;4950296;28;20424;-43
